sensor_id;sensor_type;location;lat;lon;timestamp;pressure;altitude;pressure_sealevel;temperature;humidity
67099;BME280;54288;53.046;5.668;2022-11-20T00:00:44;101592.31;;;-1.43;100.00
67099;BME280;54288;53.046;5.668;2022-11-20T00:03:09;101600.44;;;-1.32;100.00
67099;BME280;54288;53.046;5.668;2022-11-20T00:05:35;101602.25;;;-1.30;100.00
67099;BME280;54288;53.046;5.668;2022-11-20T00:08:08;101614.63;;;-1.20;100.00
67099;BME280;54288;53.046;5.668;2022-11-20T00:10:36;101605.91;;;-1.23;100.00
67099;BME280;54288;53.046;5.668;2022-11-20T00:13:02;101598.09;;;-1.26;100.00
67099;BME280;54288;53.046;5.668;2022-11-20T00:15:28;101587.00;;;-1.25;100.00
67099;BME280;54288;53.046;5.668;2022-11-20T00:17:54;101580.22;;;-1.23;100.00
67099;BME280;54288;53.046;5.668;2022-11-20T00:20:19;101585.50;;;-1.20;100.00
67099;BME280;54288;53.046;5.668;2022-11-20T00:22:45;101595.78;;;-1.20;100.00
67099;BME280;54288;53.046;5.668;2022-11-20T00:25:10;101604.56;;;-1.14;100.00
67099;BME280;54288;53.046;5.668;2022-11-20T00:27:36;101603.03;;;-1.10;100.00
67099;BME280;54288;53.046;5.668;2022-11-20T00:30:03;101603.19;;;-1.06;100.00
67099;BME280;54288;53.046;5.668;2022-11-20T00:32:29;101597.16;;;-1.06;100.00
67099;BME280;54288;53.046;5.668;2022-11-20T00:34:55;101587.78;;;-1.06;100.00
67099;BME280;54288;53.046;5.668;2022-11-20T00:37:21;101584.53;;;-1.00;100.00
67099;BME280;54288;53.046;5.668;2022-11-20T00:39:46;101584.66;;;-0.97;100.00
67099;BME280;54288;53.046;5.668;2022-11-20T00:42:12;101584.38;;;-1.05;100.00
67099;BME280;54288;53.046;5.668;2022-11-20T00:44:37;101583.75;;;-0.99;100.00
67099;BME280;54288;53.046;5.668;2022-11-20T00:47:03;101590.84;;;-0.92;100.00
67099;BME280;54288;53.046;5.668;2022-11-20T00:49:29;101586.63;;;-0.90;100.00
67099;BME280;54288;53.046;5.668;2022-11-20T00:51:54;101585.94;;;-0.86;100.00
67099;BME280;54288;53.046;5.668;2022-11-20T00:54:20;101586.00;;;-0.85;100.00
67099;BME280;54288;53.046;5.668;2022-11-20T00:56:45;101580.19;;;-0.79;100.00
67099;BME280;54288;53.046;5.668;2022-11-20T00:59:11;101587.22;;;-0.75;100.00
67099;BME280;54288;53.046;5.668;2022-11-20T01:01:37;101589.81;;;-0.74;100.00
67099;BME280;54288;53.046;5.668;2022-11-20T01:04:03;101572.63;;;-0.75;100.00
67099;BME280;54288;53.046;5.668;2022-11-20T01:06:31;101584.91;;;-0.68;100.00
67099;BME280;54288;53.046;5.668;2022-11-20T01:09:00;101589.28;;;-0.65;100.00
67099;BME280;54288;53.046;5.668;2022-11-20T01:11:31;101583.56;;;-0.58;100.00
67099;BME280;54288;53.046;5.668;2022-11-20T01:13:59;101569.03;;;-0.56;100.00
67099;BME280;54288;53.046;5.668;2022-11-20T01:16:34;101569.25;;;-0.50;100.00
67099;BME280;54288;53.046;5.668;2022-11-20T01:19:02;101564.44;;;-0.41;100.00
67099;BME280;54288;53.046;5.668;2022-11-20T01:21:36;101562.06;;;-0.35;100.00
67099;BME280;54288;53.046;5.668;2022-11-20T01:24:03;101560.47;;;-0.32;100.00
67099;BME280;54288;53.046;5.668;2022-11-20T01:26:32;101558.94;;;-0.27;100.00
67099;BME280;54288;53.046;5.668;2022-11-20T01:28:59;101554.78;;;-0.23;100.00
67099;BME280;54288;53.046;5.668;2022-11-20T01:31:33;101551.44;;;-0.21;100.00
67099;BME280;54288;53.046;5.668;2022-11-20T01:34:02;101550.03;;;-0.12;100.00
67099;BME280;54288;53.046;5.668;2022-11-20T01:36:30;101540.72;;;-0.08;100.00
67099;BME280;54288;53.046;5.668;2022-11-20T01:38:59;101536.44;;;-0.08;100.00
67099;BME280;54288;53.046;5.668;2022-11-20T01:41:27;101529.56;;;-0.08;100.00
67099;BME280;54288;53.046;5.668;2022-11-20T01:44:14;101533.91;;;-0.06;100.00
67099;BME280;54288;53.046;5.668;2022-11-20T01:46:56;101533.25;;;-0.01;100.00
67099;BME280;54288;53.046;5.668;2022-11-20T01:49:28;101535.09;;;0.03;100.00
67099;BME280;54288;53.046;5.668;2022-11-20T01:52:04;101539.41;;;0.04;100.00
67099;BME280;54288;53.046;5.668;2022-11-20T01:54:38;101535.91;;;0.02;100.00
67099;BME280;54288;53.046;5.668;2022-11-20T01:57:10;101531.63;;;0.03;100.00
67099;BME280;54288;53.046;5.668;2022-11-20T01:59:47;101517.78;;;-0.01;100.00
67099;BME280;54288;53.046;5.668;2022-11-20T02:02:17;101516.97;;;0.00;100.00
67099;BME280;54288;53.046;5.668;2022-11-20T02:04:44;101520.38;;;-0.01;100.00
67099;BME280;54288;53.046;5.668;2022-11-20T02:07:10;101517.78;;;-0.01;100.00
67099;BME280;54288;53.046;5.668;2022-11-20T02:09:36;101508.16;;;-0.06;100.00
67099;BME280;54288;53.046;5.668;2022-11-20T02:12:03;101515.75;;;-0.11;100.00
67099;BME280;54288;53.046;5.668;2022-11-20T02:14:29;101500.09;;;-0.17;100.00
67099;BME280;54288;53.046;5.668;2022-11-20T02:16:55;101502.72;;;-0.15;100.00
67099;BME280;54288;53.046;5.668;2022-11-20T02:19:30;101494.88;;;-0.19;100.00
67099;BME280;54288;53.046;5.668;2022-11-20T02:22:28;101510.31;;;-0.19;100.00
67099;BME280;54288;53.046;5.668;2022-11-20T02:24:56;101509.44;;;-0.20;100.00
67099;BME280;54288;53.046;5.668;2022-11-20T02:27:24;101506.53;;;-0.29;100.00
67099;BME280;54288;53.046;5.668;2022-11-20T02:29:55;101508.06;;;-0.35;100.00
67099;BME280;54288;53.046;5.668;2022-11-20T02:32:28;101513.91;;;-0.39;100.00
67099;BME280;54288;53.046;5.668;2022-11-20T02:34:54;101517.88;;;-0.49;100.00
67099;BME280;54288;53.046;5.668;2022-11-20T02:37:20;101509.22;;;-0.51;100.00
67099;BME280;54288;53.046;5.668;2022-11-20T02:39:48;101516.16;;;-0.48;100.00
67099;BME280;54288;53.046;5.668;2022-11-20T02:42:14;101510.03;;;-0.52;100.00
67099;BME280;54288;53.046;5.668;2022-11-20T02:44:40;101512.41;;;-0.58;100.00
67099;BME280;54288;53.046;5.668;2022-11-20T02:47:06;101519.03;;;-0.64;100.00
67099;BME280;54288;53.046;5.668;2022-11-20T02:49:32;101499.81;;;-0.74;100.00
67099;BME280;54288;53.046;5.668;2022-11-20T02:51:58;101507.50;;;-0.75;100.00
67099;BME280;54288;53.046;5.668;2022-11-20T02:54:24;101501.53;;;-0.74;100.00
67099;BME280;54288;53.046;5.668;2022-11-20T02:56:50;101514.34;;;-0.76;100.00
67099;BME280;54288;53.046;5.668;2022-11-20T02:59:15;101510.84;;;-0.78;100.00
67099;BME280;54288;53.046;5.668;2022-11-20T03:01:41;101495.22;;;-0.82;100.00
67099;BME280;54288;53.046;5.668;2022-11-20T03:04:06;101500.44;;;-0.81;100.00
67099;BME280;54288;53.046;5.668;2022-11-20T03:06:32;101513.22;;;-0.82;100.00
67099;BME280;54288;53.046;5.668;2022-11-20T03:08:58;101502.78;;;-0.87;100.00
67099;BME280;54288;53.046;5.668;2022-11-20T03:11:23;101498.47;;;-0.88;100.00
67099;BME280;54288;53.046;5.668;2022-11-20T03:13:49;101482.16;;;-0.88;100.00
67099;BME280;54288;53.046;5.668;2022-11-20T03:16:18;101486.50;;;-0.87;100.00
67099;BME280;54288;53.046;5.668;2022-11-20T03:18:44;101493.88;;;-0.96;100.00
67099;BME280;54288;53.046;5.668;2022-11-20T03:21:11;101487.00;;;-0.97;100.00
67099;BME280;54288;53.046;5.668;2022-11-20T03:23:38;101472.34;;;-1.00;100.00
67099;BME280;54288;53.046;5.668;2022-11-20T03:26:13;101471.72;;;-0.93;100.00
67099;BME280;54288;53.046;5.668;2022-11-20T03:28:40;101470.25;;;-0.86;100.00
67099;BME280;54288;53.046;5.668;2022-11-20T03:31:09;101470.25;;;-0.86;100.00
67099;BME280;54288;53.046;5.668;2022-11-20T03:33:35;101468.59;;;-0.84;100.00
67099;BME280;54288;53.046;5.668;2022-11-20T03:36:02;101460.97;;;-0.83;100.00
67099;BME280;54288;53.046;5.668;2022-11-20T03:38:31;101448.94;;;-0.84;100.00
67099;BME280;54288;53.046;5.668;2022-11-20T03:40:59;101447.22;;;-0.83;100.00
67099;BME280;54288;53.046;5.668;2022-11-20T03:43:25;101455.03;;;-0.80;100.00
67099;BME280;54288;53.046;5.668;2022-11-20T03:45:50;101440.03;;;-0.93;100.00
67099;BME280;54288;53.046;5.668;2022-11-20T03:48:16;101437.13;;;-1.02;100.00
67099;BME280;54288;53.046;5.668;2022-11-20T03:50:42;101437.97;;;-1.03;100.00
67099;BME280;54288;53.046;5.668;2022-11-20T03:53:07;101434.63;;;-1.01;100.00
67099;BME280;54288;53.046;5.668;2022-11-20T03:55:33;101452.13;;;-0.91;100.00
67099;BME280;54288;53.046;5.668;2022-11-20T03:57:58;101443.41;;;-0.94;100.00
67099;BME280;54288;53.046;5.668;2022-11-20T04:00:24;101445.25;;;-0.90;100.00
67099;BME280;54288;53.046;5.668;2022-11-20T04:02:49;101442.63;;;-0.92;100.00
67099;BME280;54288;53.046;5.668;2022-11-20T04:05:15;101425.09;;;-1.03;100.00
67099;BME280;54288;53.046;5.668;2022-11-20T04:07:41;101428.59;;;-1.01;100.00
67099;BME280;54288;53.046;5.668;2022-11-20T04:10:07;101417.41;;;-1.03;100.00
67099;BME280;54288;53.046;5.668;2022-11-20T04:12:33;101427.00;;;-0.98;100.00
67099;BME280;54288;53.046;5.668;2022-11-20T04:14:58;101425.94;;;-1.04;100.00
67099;BME280;54288;53.046;5.668;2022-11-20T04:17:24;101424.78;;;-1.12;100.00
67099;BME280;54288;53.046;5.668;2022-11-20T04:19:50;101412.97;;;-1.07;100.00
67099;BME280;54288;53.046;5.668;2022-11-20T04:22:15;101410.19;;;-1.13;100.00
67099;BME280;54288;53.046;5.668;2022-11-20T04:24:41;101410.94;;;-1.16;100.00
67099;BME280;54288;53.046;5.668;2022-11-20T04:27:07;101402.97;;;-1.23;100.00
67099;BME280;54288;53.046;5.668;2022-11-20T04:29:32;101406.63;;;-1.17;100.00
67099;BME280;54288;53.046;5.668;2022-11-20T04:31:58;101395.38;;;-1.20;100.00
67099;BME280;54288;53.046;5.668;2022-11-20T04:34:23;101397.88;;;-1.22;100.00
67099;BME280;54288;53.046;5.668;2022-11-20T04:36:49;101398.78;;;-1.21;100.00
67099;BME280;54288;53.046;5.668;2022-11-20T04:39:15;101392.03;;;-1.18;100.00
67099;BME280;54288;53.046;5.668;2022-11-20T04:41:40;101396.22;;;-1.21;100.00
67099;BME280;54288;53.046;5.668;2022-11-20T04:44:06;101385.97;;;-1.20;100.00
67099;BME280;54288;53.046;5.668;2022-11-20T04:46:38;101386.13;;;-1.15;100.00
67099;BME280;54288;53.046;5.668;2022-11-20T04:49:04;101376.56;;;-1.19;100.00
67099;BME280;54288;53.046;5.668;2022-11-20T04:51:31;101364.63;;;-1.17;100.00
67099;BME280;54288;53.046;5.668;2022-11-20T04:53:56;101371.31;;;-1.22;100.00
67099;BME280;54288;53.046;5.668;2022-11-20T04:56:22;101374.69;;;-1.25;100.00
67099;BME280;54288;53.046;5.668;2022-11-20T04:58:48;101371.22;;;-1.25;100.00
67099;BME280;54288;53.046;5.668;2022-11-20T05:01:16;101373.88;;;-1.22;100.00
67099;BME280;54288;53.046;5.668;2022-11-20T05:03:43;101380.78;;;-1.21;100.00
67099;BME280;54288;53.046;5.668;2022-11-20T05:06:12;101372.97;;;-1.24;100.00
67099;BME280;54288;53.046;5.668;2022-11-20T05:08:37;101370.09;;;-1.33;100.00
67099;BME280;54288;53.046;5.668;2022-11-20T05:11:06;101371.56;;;-1.40;100.00
67099;BME280;54288;53.046;5.668;2022-11-20T05:13:32;101365.09;;;-1.52;100.00
67099;BME280;54288;53.046;5.668;2022-11-20T05:16:06;101390.16;;;-1.47;100.00
67099;BME280;54288;53.046;5.668;2022-11-20T05:18:33;101401.28;;;-1.46;100.00
67099;BME280;54288;53.046;5.668;2022-11-20T05:20:59;101393.47;;;-1.49;100.00
67099;BME280;54288;53.046;5.668;2022-11-20T05:23:25;101396.03;;;-1.49;100.00
67099;BME280;54288;53.046;5.668;2022-11-20T05:25:54;101378.41;;;-1.62;100.00
67099;BME280;54288;53.046;5.668;2022-11-20T05:28:21;101405.19;;;-1.56;100.00
67099;BME280;54288;53.046;5.668;2022-11-20T05:30:46;101401.25;;;-1.70;100.00
67099;BME280;54288;53.046;5.668;2022-11-20T05:33:12;101393.50;;;-1.71;100.00
67099;BME280;54288;53.046;5.668;2022-11-20T05:35:37;101390.56;;;-1.80;100.00
67099;BME280;54288;53.046;5.668;2022-11-20T05:38:03;101393.16;;;-1.80;100.00
67099;BME280;54288;53.046;5.668;2022-11-20T05:40:28;101376.94;;;-1.79;100.00
67099;BME280;54288;53.046;5.668;2022-11-20T05:42:54;101381.38;;;-1.75;100.00
67099;BME280;54288;53.046;5.668;2022-11-20T05:45:20;101384.00;;;-1.74;100.00
67099;BME280;54288;53.046;5.668;2022-11-20T05:47:45;101364.00;;;-1.82;100.00
67099;BME280;54288;53.046;5.668;2022-11-20T05:50:11;101371.91;;;-1.76;100.00
67099;BME280;54288;53.046;5.668;2022-11-20T05:52:36;101361.50;;;-1.81;100.00
67099;BME280;54288;53.046;5.668;2022-11-20T05:55:02;101357.97;;;-1.83;100.00
67099;BME280;54288;53.046;5.668;2022-11-20T05:57:28;101371.09;;;-1.75;100.00
67099;BME280;54288;53.046;5.668;2022-11-20T05:59:53;101366.66;;;-1.79;100.00
67099;BME280;54288;53.046;5.668;2022-11-20T06:02:19;101367.63;;;-1.77;100.00
67099;BME280;54288;53.046;5.668;2022-11-20T06:04:44;101371.91;;;-1.76;100.00
67099;BME280;54288;53.046;5.668;2022-11-20T06:07:10;101357.34;;;-1.77;100.00
67099;BME280;54288;53.046;5.668;2022-11-20T06:09:36;101348.06;;;-1.74;100.00
67099;BME280;54288;53.046;5.668;2022-11-20T06:12:01;101346.09;;;-1.81;100.00
67099;BME280;54288;53.046;5.668;2022-11-20T06:14:27;101346.38;;;-1.73;100.00
67099;BME280;54288;53.046;5.668;2022-11-20T06:16:53;101345.59;;;-1.71;100.00
67099;BME280;54288;53.046;5.668;2022-11-20T06:19:18;101344.81;;;-1.68;100.00
67099;BME280;54288;53.046;5.668;2022-11-20T06:21:44;101344.25;;;-1.61;100.00
67099;BME280;54288;53.046;5.668;2022-11-20T06:24:10;101343.38;;;-1.62;100.00
67099;BME280;54288;53.046;5.668;2022-11-20T06:26:36;101348.56;;;-1.60;100.00
67099;BME280;54288;53.046;5.668;2022-11-20T06:29:02;101344.25;;;-1.61;100.00
67099;BME280;54288;53.046;5.668;2022-11-20T06:31:28;101342.47;;;-1.62;100.00
67099;BME280;54288;53.046;5.668;2022-11-20T06:33:54;101350.19;;;-1.62;100.00
67099;BME280;54288;53.046;5.668;2022-11-20T06:36:22;101345.88;;;-1.63;100.00
67099;BME280;54288;53.046;5.668;2022-11-20T06:38:48;101344.94;;;-1.65;100.00
67099;BME280;54288;53.046;5.668;2022-11-20T06:41:16;101354.31;;;-1.67;100.00
67099;BME280;54288;53.046;5.668;2022-11-20T06:43:43;101342.03;;;-1.74;100.00
67099;BME280;54288;53.046;5.668;2022-11-20T06:46:11;101357.88;;;-1.62;100.00
67099;BME280;54288;53.046;5.668;2022-11-20T06:48:37;101356.25;;;-1.60;100.00
67099;BME280;54288;53.046;5.668;2022-11-20T06:51:04;101359.19;;;-1.50;100.00
67099;BME280;54288;53.046;5.668;2022-11-20T06:53:30;101348.09;;;-1.49;100.00
67099;BME280;54288;53.046;5.668;2022-11-20T06:55:56;101357.81;;;-1.40;100.00
67099;BME280;54288;53.046;5.668;2022-11-20T06:58:30;101353.72;;;-1.35;100.00
67099;BME280;54288;53.046;5.668;2022-11-20T07:01:00;101352.09;;;-1.33;100.00
67099;BME280;54288;53.046;5.668;2022-11-20T07:03:25;101348.72;;;-1.32;100.00
67099;BME280;54288;53.046;5.668;2022-11-20T07:05:51;101364.78;;;-1.38;100.00
67099;BME280;54288;53.046;5.668;2022-11-20T07:08:17;101377.53;;;-1.41;100.00
67099;BME280;54288;53.046;5.668;2022-11-20T07:10:42;101362.59;;;-1.51;100.00
67099;BME280;54288;53.046;5.668;2022-11-20T07:13:08;101352.25;;;-1.52;100.00
67099;BME280;54288;53.046;5.668;2022-11-20T07:15:33;101358.69;;;-1.63;100.00
67099;BME280;54288;53.046;5.668;2022-11-20T07:17:59;101362.69;;;-1.71;100.00
67099;BME280;54288;53.046;5.668;2022-11-20T07:20:25;101366.19;;;-1.69;100.00
67099;BME280;54288;53.046;5.668;2022-11-20T07:22:55;101358.41;;;-1.71;100.00
67099;BME280;54288;53.046;5.668;2022-11-20T07:25:22;101348.75;;;-1.78;100.00
67099;BME280;54288;53.046;5.668;2022-11-20T07:27:47;101333.06;;;-1.85;100.00
67099;BME280;54288;53.046;5.668;2022-11-20T07:30:15;101348.22;;;-1.69;100.00
67099;BME280;54288;53.046;5.668;2022-11-20T07:32:41;101320.78;;;-1.94;100.00
67099;BME280;54288;53.046;5.668;2022-11-20T07:35:07;101318.63;;;-1.83;100.00
67099;BME280;54288;53.046;5.668;2022-11-20T07:37:36;101337.34;;;-1.62;100.00
67099;BME280;54288;53.046;5.668;2022-11-20T07:40:03;101338.38;;;-1.57;100.00
67099;BME280;54288;53.046;5.668;2022-11-20T07:42:29;101335.13;;;-1.53;100.00
67099;BME280;54288;53.046;5.668;2022-11-20T07:44:55;101313.31;;;-1.64;100.00
67099;BME280;54288;53.046;5.668;2022-11-20T07:47:21;101308.09;;;-1.67;100.00
67099;BME280;54288;53.046;5.668;2022-11-20T07:49:47;101339.00;;;-1.41;100.00
67099;BME280;54288;53.046;5.668;2022-11-20T07:52:13;101309.38;;;-1.55;100.00
67099;BME280;54288;53.046;5.668;2022-11-20T07:54:39;101350.66;;;-1.25;100.00
67099;BME280;54288;53.046;5.668;2022-11-20T07:57:06;101318.94;;;-1.27;100.00
67099;BME280;54288;53.046;5.668;2022-11-20T07:59:32;101297.34;;;-1.32;100.00
67099;BME280;54288;53.046;5.668;2022-11-20T08:01:58;101307.09;;;-1.22;100.00
67099;BME280;54288;53.046;5.668;2022-11-20T08:04:24;101332.69;;;-1.00;100.00
67099;BME280;54288;53.046;5.668;2022-11-20T08:06:52;101308.22;;;-1.14;100.00
67099;BME280;54288;53.046;5.668;2022-11-20T08:09:18;101308.31;;;-1.11;100.00
67099;BME280;54288;53.046;5.668;2022-11-20T08:11:44;101303.28;;;-1.08;100.00
67099;BME280;54288;53.046;5.668;2022-11-20T08:14:28;101301.19;;;-0.95;100.00
67099;BME280;54288;53.046;5.668;2022-11-20T08:16:54;101320.69;;;-0.75;100.00
67099;BME280;54288;53.046;5.668;2022-11-20T08:19:20;101280.81;;;-0.89;100.00
67099;BME280;54288;53.046;5.668;2022-11-20T08:21:46;101309.19;;;-0.59;100.00
67099;BME280;54288;53.046;5.668;2022-11-20T08:24:12;101282.34;;;-0.67;100.00
67099;BME280;54288;53.046;5.668;2022-11-20T08:26:39;101273.81;;;-0.66;100.00
67099;BME280;54288;53.046;5.668;2022-11-20T08:29:06;101279.44;;;-0.51;100.00
67099;BME280;54288;53.046;5.668;2022-11-20T08:31:33;101305.25;;;-0.21;100.00
67099;BME280;54288;53.046;5.668;2022-11-20T08:33:59;101268.91;;;-0.31;100.00
67099;BME280;54288;53.046;5.668;2022-11-20T08:36:25;101271.72;;;-0.23;100.00
67099;BME280;54288;53.046;5.668;2022-11-20T08:38:54;101266.97;;;-0.10;100.00
67099;BME280;54288;53.046;5.668;2022-11-20T08:41:21;101273.38;;;0.04;100.00
67099;BME280;54288;53.046;5.668;2022-11-20T08:43:56;101279.75;;;0.16;100.00
67099;BME280;54288;53.046;5.668;2022-11-20T08:46:24;101281.31;;;0.11;100.00
67099;BME280;54288;53.046;5.668;2022-11-20T08:48:51;101267.19;;;-0.03;100.00
67099;BME280;54288;53.046;5.668;2022-11-20T08:51:18;101274.75;;;0.22;100.00
67099;BME280;54288;53.046;5.668;2022-11-20T08:53:44;101263.97;;;0.35;100.00
67099;BME280;54288;53.046;5.668;2022-11-20T08:56:10;101295.56;;;0.61;100.00
67099;BME280;54288;53.046;5.668;2022-11-20T08:58:37;101290.50;;;0.64;100.00
67099;BME280;54288;53.046;5.668;2022-11-20T09:01:04;101261.28;;;0.31;100.00
67099;BME280;54288;53.046;5.668;2022-11-20T09:03:30;101302.28;;;0.56;100.00
67099;BME280;54288;53.046;5.668;2022-11-20T09:06:00;101267.31;;;0.31;99.87
67099;BME280;54288;53.046;5.668;2022-11-20T09:08:27;101260.44;;;0.32;99.71
67099;BME280;54288;53.046;5.668;2022-11-20T09:10:55;101296.41;;;0.60;99.60
67099;BME280;54288;53.046;5.668;2022-11-20T09:13:22;101293.81;;;0.60;99.21
67099;BME280;54288;53.046;5.668;2022-11-20T09:16:06;101314.97;;;0.79;99.56
67099;BME280;54288;53.046;5.668;2022-11-20T09:18:34;101306.66;;;0.89;98.53
67099;BME280;54288;53.046;5.668;2022-11-20T09:21:12;101296.09;;;0.80;98.81
67099;BME280;54288;53.046;5.668;2022-11-20T09:23:39;101279.09;;;0.87;98.54
67099;BME280;54288;53.046;5.668;2022-11-20T09:26:11;101281.91;;;0.97;98.53
67099;BME280;54288;53.046;5.668;2022-11-20T09:28:38;101253.41;;;0.91;97.60
67099;BME280;54288;53.046;5.668;2022-11-20T09:31:06;101283.28;;;1.19;97.31
67099;BME280;54288;53.046;5.668;2022-11-20T09:33:32;101258.34;;;1.18;96.49
67099;BME280;54288;53.046;5.668;2022-11-20T09:35:58;101265.94;;;1.47;95.34
67099;BME280;54288;53.046;5.668;2022-11-20T09:38:24;101239.47;;;1.56;94.58
67099;BME280;54288;53.046;5.668;2022-11-20T09:41:03;101244.91;;;1.69;93.23
67099;BME280;54288;53.046;5.668;2022-11-20T09:46:49;101238.66;;;1.58;93.34
67099;BME280;54288;53.046;5.668;2022-11-20T09:52:32;101233.88;;;1.76;93.40
67099;BME280;54288;53.046;5.668;2022-11-20T09:55:04;101224.31;;;2.14;91.35
67099;BME280;54288;53.046;5.668;2022-11-20T09:57:40;101242.66;;;2.73;89.84
67099;BME280;54288;53.046;5.668;2022-11-20T10:00:14;101257.94;;;3.10;88.23
67099;BME280;54288;53.046;5.668;2022-11-20T10:05:44;101254.28;;;2.50;89.30
67099;BME280;54288;53.046;5.668;2022-11-20T10:08:14;101254.88;;;2.36;89.53
67099;BME280;54288;53.046;5.668;2022-11-20T10:10:46;101249.53;;;2.25;91.00
67099;BME280;54288;53.046;5.668;2022-11-20T10:16:37;101240.69;;;2.14;91.02
67099;BME280;54288;53.046;5.668;2022-11-20T10:30:12;101213.16;;;2.16;90.18
67099;BME280;54288;53.046;5.668;2022-11-20T10:32:43;101250.41;;;2.27;91.93
67099;BME280;54288;53.046;5.668;2022-11-20T10:35:24;101240.91;;;2.25;93.27
67099;BME280;54288;53.046;5.668;2022-11-20T10:37:59;101217.22;;;2.02;93.58
67099;BME280;54288;53.046;5.668;2022-11-20T10:40:41;101213.03;;;2.09;94.01
67099;BME280;54288;53.046;5.668;2022-11-20T10:43:16;101201.59;;;1.96;92.55
67099;BME280;54288;53.046;5.668;2022-11-20T10:46:01;101201.56;;;1.95;92.40
67099;BME280;54288;53.046;5.668;2022-11-20T10:48:32;101214.50;;;1.96;91.92
67099;BME280;54288;53.046;5.668;2022-11-20T10:56:46;101210.16;;;1.95;89.87
67099;BME280;54288;53.046;5.668;2022-11-20T11:01:56;101224.16;;;2.05;88.35
67099;BME280;54288;53.046;5.668;2022-11-20T11:07:00;101198.94;;;2.38;87.29
67099;BME280;54288;53.046;5.668;2022-11-20T11:09:53;101190.84;;;2.67;85.92
67099;BME280;54288;53.046;5.668;2022-11-20T11:12:21;101191.91;;;2.80;84.78
67099;BME280;54288;53.046;5.668;2022-11-20T11:14:50;101181.69;;;2.87;82.82
67099;BME280;54288;53.046;5.668;2022-11-20T11:19:59;101179.13;;;2.87;81.41
67099;BME280;54288;53.046;5.668;2022-11-20T11:22:31;101188.63;;;2.88;81.03
67099;BME280;54288;53.046;5.668;2022-11-20T11:24:58;101183.34;;;2.84;82.06
67099;BME280;54288;53.046;5.668;2022-11-20T11:27:23;101172.69;;;2.64;81.38
67099;BME280;54288;53.046;5.668;2022-11-20T11:29:49;101169.09;;;2.56;79.97
67099;BME280;54288;53.046;5.668;2022-11-20T11:32:18;101173.47;;;2.59;80.11
67099;BME280;54288;53.046;5.668;2022-11-20T11:35:03;101152.69;;;2.53;80.59
67099;BME280;54288;53.046;5.668;2022-11-20T11:37:35;101153.50;;;2.50;79.51
67099;BME280;54288;53.046;5.668;2022-11-20T11:40:05;101151.53;;;2.36;77.04
67099;BME280;54288;53.046;5.668;2022-11-20T11:42:33;101148.81;;;2.28;75.15
67099;BME280;54288;53.046;5.668;2022-11-20T11:45:00;101147.06;;;2.27;74.08
67099;BME280;54288;53.046;5.668;2022-11-20T11:52:59;101148.28;;;2.47;77.48
67099;BME280;54288;53.046;5.668;2022-11-20T11:55:47;101144.75;;;2.44;77.64
67099;BME280;54288;53.046;5.668;2022-11-20T11:58:43;101135.22;;;2.38;77.22
67099;BME280;54288;53.046;5.668;2022-11-20T12:01:28;101148.94;;;2.36;77.90
67099;BME280;54288;53.046;5.668;2022-11-20T12:07:10;101124.66;;;2.26;78.04
67099;BME280;54288;53.046;5.668;2022-11-20T12:09:46;101107.34;;;2.19;78.01
67099;BME280;54288;53.046;5.668;2022-11-20T12:12:21;101123.03;;;2.31;77.49
67099;BME280;54288;53.046;5.668;2022-11-20T12:14:53;101120.53;;;2.36;78.25
67099;BME280;54288;53.046;5.668;2022-11-20T12:17:23;101104.03;;;2.29;77.62
67099;BME280;54288;53.046;5.668;2022-11-20T12:19:49;101108.41;;;2.33;78.51
67099;BME280;54288;53.046;5.668;2022-11-20T12:22:28;101110.97;;;2.30;77.65
67099;BME280;54288;53.046;5.668;2022-11-20T12:25:06;101094.56;;;2.28;78.54
67099;BME280;54288;53.046;5.668;2022-11-20T12:27:52;101094.59;;;2.30;77.54
67099;BME280;54288;53.046;5.668;2022-11-20T12:30:23;101081.69;;;2.31;77.74
67099;BME280;54288;53.046;5.668;2022-11-20T12:50:31;101070.59;;;2.38;76.79
67099;BME280;54288;53.046;5.668;2022-11-20T13:04:14;101051.19;;;2.63;76.10
67099;BME280;54288;53.046;5.668;2022-11-20T13:06:44;101045.81;;;2.49;76.59
67099;BME280;54288;53.046;5.668;2022-11-20T13:09:14;101043.25;;;2.52;76.63
67099;BME280;54288;53.046;5.668;2022-11-20T13:14:37;101034.34;;;2.32;78.06
67099;BME280;54288;53.046;5.668;2022-11-20T13:17:30;101034.22;;;2.25;78.96
67099;BME280;54288;53.046;5.668;2022-11-20T13:20:00;101019.50;;;2.21;79.63
67099;BME280;54288;53.046;5.668;2022-11-20T13:22:28;101009.25;;;2.25;80.33
67099;BME280;54288;53.046;5.668;2022-11-20T13:24:54;100994.59;;;2.23;80.42
67099;BME280;54288;53.046;5.668;2022-11-20T13:27:23;100994.56;;;2.21;80.29
67099;BME280;54288;53.046;5.668;2022-11-20T13:30:22;100993.75;;;2.25;80.54
67099;BME280;54288;53.046;5.668;2022-11-20T13:32:55;100994.59;;;2.23;80.43
67099;BME280;54288;53.046;5.668;2022-11-20T13:35:33;100985.00;;;2.17;79.66
67099;BME280;54288;53.046;5.668;2022-11-20T13:40:39;100981.53;;;2.15;80.52
67099;BME280;54288;53.046;5.668;2022-11-20T13:48:24;100971.25;;;2.17;80.92
67099;BME280;54288;53.046;5.668;2022-11-20T14:02:18;100946.22;;;2.14;79.66
67099;BME280;54288;53.046;5.668;2022-11-20T14:04:50;100929.81;;;2.12;79.72
67099;BME280;54288;53.046;5.668;2022-11-20T14:07:20;100932.47;;;2.15;79.31
67099;BME280;54288;53.046;5.668;2022-11-20T14:09:56;100924.75;;;2.18;79.41
67099;BME280;54288;53.046;5.668;2022-11-20T14:12:28;100923.00;;;2.17;79.71
67099;BME280;54288;53.046;5.668;2022-11-20T14:14:54;100916.19;;;2.22;80.36
67099;BME280;54288;53.046;5.668;2022-11-20T14:17:33;100909.34;;;2.23;80.32
67099;BME280;54288;53.046;5.668;2022-11-20T14:20:11;100901.50;;;2.18;81.17
67099;BME280;54288;53.046;5.668;2022-11-20T14:22:37;100897.16;;;2.16;81.82
67099;BME280;54288;53.046;5.668;2022-11-20T14:25:24;100895.44;;;2.16;82.69
67099;BME280;54288;53.046;5.668;2022-11-20T14:27:57;100895.38;;;2.10;82.61
67099;BME280;54288;53.046;5.668;2022-11-20T14:30:26;100895.38;;;2.10;82.68